Time;durP1;ratioP1;P1;durP2;ratioP2;P2;SDS_P1;SDS_P2;PMS_P1;PMS_P2;Temp;Humidity;BMP_temperature;BMP_pressure;BME280_temperature;BME280_humidity;BME280_pressure;Samples;Min_cycle;Max_cycle;Signal;HPM_P1;HPM_P2
2023/06/19 00:01:56;;;;;;;0.60;0.43;;;;;;;16.44;65.39;100618.03;4987694;28;20050;-84
2023/06/19 00:04:24;;;;;;;1.25;0.40;;;;;;;16.44;64.40;100622.38;4987442;28;20051;-81
2023/06/19 00:06:55;;;;;;;0.10;0.10;;;;;;;16.43;59.42;100616.31;4993318;28;20162;-81
2023/06/19 00:09:23;;;;;;;0.50;0.35;;;;;;;16.45;59.71;100617.19;4989816;28;20055;-84
2023/06/19 00:11:55;;;;;;;0.50;0.30;;;;;;;16.41;58.18;100625.88;4997672;28;20050;-81
2023/06/19 00:14:23;;;;;;;0.30;0.20;;;;;;;16.34;57.91;100621.50;4994055;28;20057;-83
2023/06/19 00:16:52;;;;;;;0.52;0.22;;;;;;;16.27;58.15;100619.72;4998801;28;20018;-83
2023/06/19 00:19:21;;;;;;;0.70;0.30;;;;;;;16.15;57.47;100628.38;4998277;28;20043;-81
2023/06/19 00:21:56;;;;;;;1.08;0.22;;;;;;;16.06;59.14;100629.22;5003719;28;20046;-77
2023/06/19 00:24:27;;;;;;;0.40;0.20;;;;;;;15.95;58.09;100633.50;5004818;28;20114;-86
2023/06/19 00:26:55;;;;;;;0.63;0.20;;;;;;;15.86;60.47;100629.09;5003679;28;20054;-82
2023/06/19 00:29:27;;;;;;;0.28;0.22;;;;;;;15.85;61.02;100634.28;4984216;28;20047;-85
2023/06/19 00:31:57;;;;;;;0.10;0.10;;;;;;;15.84;61.99;100636.03;4989196;28;20140;-82
2023/06/19 00:34:25;;;;;;;0.17;0.17;;;;;;;15.84;62.94;100629.94;4986531;28;20114;-79
2023/06/19 00:36:56;;;;;;;0.20;0.15;;;;;;;15.87;66.53;100635.16;4983211;28;20160;-81
2023/06/19 00:39:27;;;;;;;0.25;0.10;;;;;;;15.87;64.46;100623.03;4984630;28;20053;-78
2023/06/19 00:41:56;;;;;;;0.25;0.13;;;;;;;15.95;62.27;100628.28;4981472;28;20595;-78
2023/06/19 00:44:25;;;;;;;0.40;0.20;;;;;;;15.89;59.52;100623.00;4989289;28;20054;-81
2023/06/19 00:46:58;;;;;;;0.30;0.20;;;;;;;15.90;57.53;100622.16;4990181;28;20500;-79
2023/06/19 00:49:28;;;;;;;1.05;0.20;;;;;;;15.88;67.49;100616.06;4984443;28;20051;-78
2023/06/19 00:52:05;;;;;;;0.52;0.30;;;;;;;15.83;66.64;100617.78;4989621;28;20046;-81
2023/06/19 00:54:35;;;;;;;0.47;0.22;;;;;;;15.80;67.06;100618.59;4977602;28;20105;-78
2023/06/19 00:57:04;;;;;;;0.25;0.17;;;;;;;15.80;69.05;100617.75;4987683;28;20120;-81
2023/06/19 00:59:33;;;;;;;0.38;0.20;;;;;;;15.76;72.56;100621.19;4988635;28;20050;-81
2023/06/19 01:02:02;;;;;;;0.32;0.30;;;;;;;15.72;71.67;100625.53;4989428;28;20050;-82
2023/06/19 01:04:31;;;;;;;0.30;0.13;;;;;;;15.72;70.29;100622.94;4989348;28;20105;-85
2023/06/19 01:07:09;;;;;;;0.35;0.35;;;;;;;15.66;72.41;100615.88;4994238;28;20106;-84
2023/06/19 01:09:44;;;;;;;0.57;0.45;;;;;;;15.63;74.44;100625.44;4992341;28;20759;-79
2023/06/19 01:12:18;;;;;;;2.88;0.45;;;;;;;15.68;76.56;100623.72;4991812;28;20562;-85
2023/06/19 01:14:55;;;;;;;0.85;0.30;;;;;;;15.73;73.63;100626.41;4980221;28;20128;-81
2023/06/19 01:17:27;;;;;;;1.02;0.32;;;;;;;15.70;78.45;100617.69;4981515;28;20055;-82
2023/06/19 01:19:56;;;;;;;0.43;0.35;;;;;;;15.68;76.97;100618.50;4990458;28;20050;-82
2023/06/19 01:22:28;;;;;;;0.60;0.30;;;;;;;15.64;67.41;100609.78;4984318;28;20060;-83
2023/06/19 01:24:57;;;;;;;0.22;0.20;;;;;;;15.65;64.92;100614.16;4984912;28;20547;-81
2023/06/19 01:27:31;;;;;;;0.75;0.35;;;;;;;15.67;63.79;100608.97;4986460;28;20109;-81
2023/06/19 01:30:01;;;;;;;0.65;0.35;;;;;;;15.68;67.03;100608.94;4991384;28;20081;-81
2023/06/19 01:32:38;;;;;;;0.40;0.30;;;;;;;15.66;64.18;100610.66;4969718;28;20039;-79
2023/06/19 01:35:11;;;;;;;0.17;0.17;;;;;;;15.68;64.44;100605.47;4970455;28;20743;-82
2023/06/19 01:37:43;;;;;;;1.30;0.40;;;;;;;15.68;60.76;100608.06;4983766;28;20055;-82
2023/06/19 01:40:14;;;;;;;0.20;0.13;;;;;;;15.67;59.56;100611.56;4975340;28;20053;-84
2023/06/19 01:42:46;;;;;;;1.30;0.15;;;;;;;15.66;63.52;100615.88;4971384;28;20113;-83
2023/06/19 01:45:14;;;;;;;;;;;;;;;15.68;62.05;100608.06;4968295;28;20051;-82
2023/06/19 01:47:43;;;;;;;1.20;0.25;;;;;;;15.70;61.78;100604.66;4969618;28;19930;-84
2023/06/19 01:50:12;;;;;;;0.55;0.30;;;;;;;15.70;58.91;100607.25;4974978;28;20102;-83
2023/06/19 01:52:44;;;;;;;1.80;0.47;;;;;;;15.73;60.80;100615.97;4974542;28;20074;-86
2023/06/19 01:55:15;;;;;;;0.20;0.20;;;;;;;15.72;60.52;100609.88;4964316;28;20042;-83
2023/06/19 01:57:45;;;;;;;1.25;0.30;;;;;;;15.78;59.81;100619.47;4960458;28;20062;-82
2023/06/19 02:00:14;;;;;;;1.00;0.30;;;;;;;15.82;57.91;100626.44;4970338;28;20054;-85
2023/06/19 02:02:47;;;;;;;0.25;0.10;;;;;;;15.84;58.36;100620.38;4968187;28;20046;-81
2023/06/19 02:05:15;;;;;;;;;;;;;;;15.85;55.22;100624.75;4971130;28;20054;-83
2023/06/19 02:07:45;;;;;;;0.40;0.40;;;;;;;15.86;56.54;100623.00;4970659;28;20005;-81
2023/06/19 02:10:14;;;;;;;0.57;0.20;;;;;;;15.86;56.81;100617.78;4971169;28;20107;-83
2023/06/19 02:12:42;;;;;;;0.93;0.30;;;;;;;15.85;57.11;100621.25;4968581;28;20055;-84
2023/06/19 02:15:15;;;;;;;1.17;0.30;;;;;;;15.84;56.16;100622.97;4970491;28;20269;-82
2023/06/19 02:17:43;;;;;;;0.32;0.20;;;;;;;15.84;55.23;100625.59;4965594;28;20059;-80
2023/06/19 02:20:13;;;;;;;0.55;0.22;;;;;;;15.85;54.45;100621.25;4973584;28;20054;-83
2023/06/19 02:22:42;;;;;;;0.20;0.10;;;;;;;15.86;55.14;100626.47;4972656;28;20058;-83
2023/06/19 02:25:15;;;;;;;2.28;0.50;;;;;;;15.80;62.97;100612.53;4972635;28;20051;-81
2023/06/19 02:27:43;;;;;;;0.32;0.30;;;;;;;15.68;63.73;100614.16;4959975;28;20051;-82
2023/06/19 02:30:13;;;;;;;1.02;0.30;;;;;;;15.64;66.00;100622.81;4964158;28;20118;-80
2023/06/19 02:32:41;;;;;;;0.90;0.65;;;;;;;15.58;69.63;100629.75;4984281;28;20097;-80
2023/06/19 02:35:11;;;;;;;0.28;0.25;;;;;;;15.49;70.38;100622.75;4989708;28;20039;-79
2023/06/19 02:37:46;;;;;;;0.57;0.30;;;;;;;15.45;71.80;100626.19;4984283;28;20054;-79
2023/06/19 02:40:16;;;;;;;3.38;0.35;;;;;;;15.39;72.67;100631.34;4980658;28;20054;-79
2023/06/19 02:42:45;;;;;;;0.47;0.20;;;;;;;15.32;73.52;100629.53;4984918;28;20054;-82
2023/06/19 02:45:13;;;;;;;0.28;0.20;;;;;;;15.21;73.52;100632.06;4985992;28;20555;-77
2023/06/19 02:47:42;;;;;;;0.82;0.40;;;;;;;15.07;73.79;100626.72;4984614;28;20493;-76
2023/06/19 02:50:11;;;;;;;0.40;0.20;;;;;;;14.99;75.76;100631.00;4984609;28;20050;-75
2023/06/19 02:52:39;;;;;;;0.28;0.20;;;;;;;14.90;77.92;100630.91;4983637;28;20052;-78
2023/06/19 02:55:09;;;;;;;1.33;0.40;;;;;;;14.85;78.65;100633.47;4991122;28;20043;-79
2023/06/19 02:57:40;;;;;;;0.68;0.40;;;;;;;14.82;78.88;100639.53;4980281;28;20054;-78
2023/06/19 03:00:11;;;;;;;0.68;0.32;;;;;;;14.81;78.70;100635.16;4989850;28;20515;-79
2023/06/19 03:02:43;;;;;;;1.17;0.45;;;;;;;14.82;77.41;100638.63;4984369;28;20043;-79
2023/06/19 03:05:14;;;;;;;0.57;0.50;;;;;;;14.80;77.15;100633.44;4992961;28;20070;-79
2023/06/19 03:07:43;;;;;;;0.50;0.30;;;;;;;14.69;72.85;100632.44;4993722;28;20050;-79
2023/06/19 03:10:14;;;;;;;0.93;0.50;;;;;;;14.57;73.49;100635.78;5007035;28;20053;-79
2023/06/19 03:12:44;;;;;;;0.43;0.10;;;;;;;14.56;77.15;100643.56;5004949;28;20049;-80
2023/06/19 03:15:13;;;;;;;1.58;0.35;;;;;;;14.57;76.71;100642.72;4989565;28;20567;-79
2023/06/19 03:17:43;;;;;;;1.25;0.43;;;;;;;14.57;75.30;100647.94;4985862;28;20069;-79
2023/06/19 03:20:13;;;;;;;0.35;0.32;;;;;;;14.56;72.71;100649.66;4980072;28;20564;-78
2023/06/19 03:22:42;;;;;;;0.85;0.35;;;;;;;14.54;66.00;100642.66;4987442;28;20141;-78
2023/06/19 03:25:11;;;;;;;1.67;0.47;;;;;;;14.50;61.80;100654.78;4983121;28;20046;-78
2023/06/19 03:27:39;;;;;;;1.08;0.20;;;;;;;14.45;59.53;100639.09;4981910;28;20054;-79
2023/06/19 03:30:18;;;;;;;0.20;0.10;;;;;;;14.42;59.42;100639.03;4990361;28;20770;-82
2023/06/19 03:32:46;;;;;;;0.10;0.10;;;;;;;14.37;58.73;100638.13;4961114;28;20118;-79
2023/06/19 03:35:15;;;;;;;0.88;0.45;;;;;;;14.29;60.21;100650.16;4963092;28;20051;-80
2023/06/19 03:37:43;;;;;;;0.45;0.20;;;;;;;14.22;63.86;100648.34;4954972;28;20084;-81
2023/06/19 03:40:16;;;;;;;0.28;0.13;;;;;;;14.15;64.77;100651.72;4962384;28;20402;-83
2023/06/19 03:42:44;;;;;;;4.68;0.40;;;;;;;14.02;66.39;100654.16;4972317;28;20050;-80
2023/06/19 03:45:15;;;;;;;0.88;0.10;;;;;;;13.90;65.66;100648.75;4962748;28;20039;-84
2023/06/19 03:47:43;;;;;;;0.82;0.28;;;;;;;13.85;66.64;100654.78;4969163;28;20618;-80
2023/06/19 03:50:12;;;;;;;0.13;0.10;;;;;;;13.80;67.41;100649.50;4968635;28;20046;-80
2023/06/19 03:52:41;;;;;;;0.30;0.30;;;;;;;13.76;68.17;100660.69;4971680;28;20150;-81
2023/06/19 03:55:09;;;;;;;0.50;0.30;;;;;;;13.70;69.32;100661.50;4972009;28;20046;-80
2023/06/19 03:57:38;;;;;;;0.20;0.10;;;;;;;13.60;70.11;100665.66;4976870;28;20050;-80
2023/06/19 04:00:08;;;;;;;0.75;0.45;;;;;;;13.50;73.06;100662.91;4970999;28;20051;-78
2023/06/19 04:02:46;;;;;;;;;;;;;;;13.40;73.40;100662.75;4972048;28;20059;-79
2023/06/19 04:05:15;;;;;;;0.47;0.30;;;;;;;13.31;73.11;100659.13;4965868;28;19966;-81
2023/06/19 04:07:43;;;;;;;0.95;0.25;;;;;;;13.25;72.20;100661.59;4969979;28;20073;-78
2023/06/19 04:10:12;;;;;;;0.30;0.30;;;;;;;13.20;71.79;100659.78;4966010;28;20051;-79
2023/06/19 04:12:46;;;;;;;0.20;0.10;;;;;;;13.17;73.32;100657.16;4972754;28;20125;-80
2023/06/19 04:15:14;;;;;;;0.35;0.32;;;;;;;13.14;75.31;100654.47;4971106;28;20617;-80
2023/06/19 04:17:44;;;;;;;0.30;0.30;;;;;;;13.05;75.35;100658.66;4970986;28;20563;-80
2023/06/19 04:20:14;;;;;;;0.57;0.28;;;;;;;13.01;75.65;100662.94;4966575;28;20047;-81
2023/06/19 04:22:46;;;;;;;0.38;0.20;;;;;;;12.92;74.80;100663.63;4963332;28;20046;-81
2023/06/19 04:25:14;;;;;;;0.17;0.17;;;;;;;12.91;75.51;100661.84;4966075;28;20554;-79
2023/06/19 04:27:44;;;;;;;1.30;0.32;;;;;;;12.88;74.25;100660.94;4961422;28;20074;-81
2023/06/19 04:30:14;;;;;;;0.93;0.30;;;;;;;12.82;75.25;100666.00;4965784;28;20134;-80
2023/06/19 04:32:53;;;;;;;0.35;0.20;;;;;;;12.78;74.08;100667.66;4989243;28;20129;-81
2023/06/19 04:35:23;;;;;;;0.50;0.20;;;;;;;12.74;75.40;100663.28;4988347;28;20062;-80
2023/06/19 04:37:52;;;;;;;0.50;0.30;;;;;;;12.69;76.27;100665.78;4988287;28;20054;-80
2023/06/19 04:40:22;;;;;;;0.70;0.30;;;;;;;12.65;76.71;100661.38;4987683;28;20451;-80
2023/06/19 04:42:53;;;;;;;0.32;0.10;;;;;;;12.73;77.53;100670.16;4988797;28;20061;-79
2023/06/19 04:45:22;;;;;;;2.75;0.45;;;;;;;12.72;76.97;100663.25;4976657;28;20069;-80
2023/06/19 04:47:52;;;;;;;0.57;0.25;;;;;;;12.62;76.70;100665.63;4983135;28;20148;-79
2023/06/19 04:50:21;;;;;;;2.10;0.38;;;;;;;12.53;76.32;100664.63;4998773;28;20042;-80
2023/06/19 04:52:52;;;;;;;1.02;0.47;;;;;;;12.46;77.58;100667.94;4982776;28;20050;-82
2023/06/19 04:55:21;;;;;;;0.43;0.30;;;;;;;12.41;78.38;100668.66;4989089;28;20046;-80
2023/06/19 04:57:49;;;;;;;0.35;0.35;;;;;;;12.43;80.77;100667.84;4990618;28;20084;-81
2023/06/19 05:00:19;;;;;;;0.47;0.20;;;;;;;12.42;81.62;100665.25;4992819;28;20570;-81
2023/06/19 05:02:48;;;;;;;0.98;0.38;;;;;;;12.27;80.66;100653.69;4987067;28;20050;-81
2023/06/19 05:05:27;;;;;;;0.57;0.30;;;;;;;12.31;80.17;100662.41;4987741;28;20121;-82
2023/06/19 05:07:56;;;;;;;0.35;0.28;;;;;;;12.28;79.76;100667.56;4991437;28;20049;-81
2023/06/19 05:10:24;;;;;;;0.35;0.20;;;;;;;12.27;80.32;100666.66;4989455;28;20124;-81
2023/06/19 05:12:59;;;;;;;1.15;0.57;;;;;;;12.28;81.65;100668.41;4995953;28;20050;-79
2023/06/19 05:15:28;;;;;;;1.95;0.30;;;;;;;12.27;82.48;100671.84;4984367;28;20061;-78
2023/06/19 05:18:04;;;;;;;1.92;0.20;;;;;;;12.30;82.29;100666.75;4992639;28;20053;-80
2023/06/19 05:20:45;;;;;;;0.30;0.28;;;;;;;12.32;81.55;100661.56;4988941;28;20154;-81
2023/06/19 05:23:13;;;;;;;0.77;0.40;;;;;;;12.29;81.98;100664.97;4986687;28;20061;-82
2023/06/19 05:25:43;;;;;;;1.25;0.60;;;;;;;12.27;83.10;100665.78;4992863;28;20062;-81
2023/06/19 05:28:13;;;;;;;1.70;0.50;;;;;;;12.24;84.06;100668.31;4991613;28;20539;-82
2023/06/19 05:30:44;;;;;;;0.65;0.35;;;;;;;12.25;84.19;100665.75;4986385;28;20050;-81
2023/06/19 05:33:15;;;;;;;2.78;0.57;;;;;;;12.25;84.11;100663.16;4972519;28;20075;-78
2023/06/19 05:35:51;;;;;;;0.93;0.28;;;;;;;12.27;84.29;100660.59;4965408;28;20118;-79
2023/06/19 05:38:25;;;;;;;1.30;0.57;;;;;;;12.27;84.02;100663.19;4971446;28;20051;-81
2023/06/19 05:40:54;;;;;;;0.60;0.22;;;;;;;12.30;83.44;100666.75;4984171;28;20058;-81
2023/06/19 05:43:24;;;;;;;0.60;0.30;;;;;;;12.30;82.86;100656.38;4964529;28;20102;-79
2023/06/19 05:45:53;;;;;;;1.45;0.30;;;;;;;12.33;82.33;100661.59;4974650;28;20054;-78
2023/06/19 05:48:26;;;;;;;0.52;0.20;;;;;;;12.35;82.07;100662.50;4968482;28;20082;-80
2023/06/19 05:50:56;;;;;;;0.82;0.45;;;;;;;12.36;82.97;100661.66;4964181;28;20112;-79
2023/06/19 05:53:25;;;;;;;0.93;0.30;;;;;;;12.33;83.99;100661.59;4974142;28;20478;-77
2023/06/19 05:55:53;;;;;;;1.10;0.40;;;;;;;12.26;83.03;100659.72;4979093;28;20108;-77
2023/06/19 05:58:23;;;;;;;2.92;0.55;;;;;;;12.23;84.31;100658.78;4967780;28;20055;-78
2023/06/19 06:00:57;;;;;;;0.60;0.35;;;;;;;12.25;84.78;100657.97;4971389;28;20082;-78
2023/06/19 06:03:27;;;;;;;1.10;0.45;;;;;;;12.27;84.51;100656.28;4968101;28;20054;-78
2023/06/19 06:06:02;;;;;;;0.65;0.40;;;;;;;12.27;84.46;100658.88;4970536;28;20057;-78
2023/06/19 06:08:31;;;;;;;1.05;0.50;;;;;;;12.31;83.19;100657.22;4971802;28;20599;-80
2023/06/19 06:10:59;;;;;;;0.82;0.45;;;;;;;12.29;82.79;100662.38;4969913;28;20129;-78
2023/06/19 06:13:28;;;;;;;0.45;0.25;;;;;;;12.26;83.25;100664.91;4971958;28;20059;-77
2023/06/19 06:15:56;;;;;;;1.15;0.30;;;;;;;12.23;84.41;100659.69;4970098;28;20062;-78
2023/06/19 06:18:30;;;;;;;1.45;0.35;;;;;;;12.24;82.30;100656.22;4971161;28;20078;-78
2023/06/19 06:21:00;;;;;;;0.52;0.30;;;;;;;12.25;83.35;100667.47;4972530;28;20182;-79
2023/06/19 06:23:28;;;;;;;1.00;0.35;;;;;;;12.27;83.82;100666.66;4974865;28;20055;-77
2023/06/19 06:26:02;;;;;;;0.73;0.20;;;;;;;12.29;83.35;100667.56;4965394;28;20078;-79
2023/06/19 06:28:33;;;;;;;0.73;0.32;;;;;;;12.29;83.39;100662.38;4972001;28;20054;-78
2023/06/19 06:31:01;;;;;;;0.80;0.63;;;;;;;12.22;84.35;100662.22;4970893;28;20146;-79
2023/06/19 06:33:30;;;;;;;0.35;0.30;;;;;;;12.14;85.42;100669.84;4974849;28;20055;-78
2023/06/19 06:36:00;;;;;;;1.55;0.50;;;;;;;12.11;87.16;100659.38;4967843;28;20051;-79
2023/06/19 06:38:29;;;;;;;1.13;0.43;;;;;;;12.12;88.28;100663.75;4968609;28;20112;-78
2023/06/19 06:41:00;;;;;;;0.82;0.43;;;;;;;12.15;89.24;100658.63;4971184;28;20043;-77
2023/06/19 06:43:28;;;;;;;0.70;0.47;;;;;;;12.18;89.12;100665.59;4971931;28;20105;-78
2023/06/19 06:45:57;;;;;;;0.25;0.10;;;;;;;12.17;89.19;100659.53;4969377;28;20057;-78
2023/06/19 06:48:26;;;;;;;0.70;0.55;;;;;;;12.18;89.38;100663.88;4957977;28;20061;-79
2023/06/19 06:51:00;;;;;;;0.85;0.40;;;;;;;12.19;88.70;100663.03;4965894;28;20826;-79
2023/06/19 06:53:32;;;;;;;1.40;0.55;;;;;;;12.16;87.99;100660.34;4972039;28;20053;-78
2023/06/19 06:56:01;;;;;;;0.63;0.20;;;;;;;12.09;87.81;100656.75;4972367;28;20141;-78
2023/06/19 06:58:29;;;;;;;0.88;0.30;;;;;;;12.04;87.68;100654.91;4975484;28;20070;-79
2023/06/19 07:01:00;;;;;;;1.58;0.47;;;;;;;12.05;88.04;100665.34;4973829;28;20511;-78
2023/06/19 07:03:31;;;;;;;0.52;0.30;;;;;;;12.08;89.06;100659.34;4965588;28;20105;-79
2023/06/19 07:06:00;;;;;;;0.32;0.32;;;;;;;12.08;88.69;100657.63;4967003;28;20065;-78
2023/06/19 07:08:30;;;;;;;0.35;0.25;;;;;;;12.09;88.04;100661.06;4970887;28;20060;-78
2023/06/19 07:11:06;;;;;;;0.82;0.25;;;;;;;12.08;87.81;100662.78;4970088;28;20082;-78
2023/06/19 07:13:35;;;;;;;0.45;0.40;;;;;;;12.09;88.07;100655.88;4968776;28;20431;-77
2023/06/19 07:16:04;;;;;;;0.45;0.45;;;;;;;12.11;88.26;100661.97;4969016;28;20516;-78
2023/06/19 07:18:34;;;;;;;0.45;0.32;;;;;;;12.10;86.99;100655.06;4972914;28;20054;-77
2023/06/19 07:21:11;;;;;;;0.15;0.15;;;;;;;12.08;86.88;100656.75;4971623;28;20054;-78
2023/06/19 07:23:44;;;;;;;2.00;0.45;;;;;;;12.08;87.94;100659.34;4969741;28;20054;-79
2023/06/19 07:26:13;;;;;;;1.38;0.30;;;;;;;11.99;87.33;100654.81;4971800;28;20057;-78
2023/06/19 07:28:43;;;;;;;2.47;0.22;;;;;;;11.93;89.70;100654.66;4968524;28;20054;-78
2023/06/19 07:31:12;;;;;;;0.55;0.40;;;;;;;11.89;90.42;100658.94;4976055;28;20055;-78
2023/06/19 07:33:41;;;;;;;2.38;0.40;;;;;;;11.91;90.59;100653.75;4988682;28;20038;-78
2023/06/19 07:36:13;;;;;;;0.93;0.68;;;;;;;11.90;91.23;100650.28;4988222;28;20080;-78
2023/06/19 07:38:44;;;;;;;0.80;0.45;;;;;;;11.90;91.71;100652.03;4989628;28;20717;-78
2023/06/19 07:41:13;;;;;;;0.98;0.30;;;;;;;11.89;91.63;100642.50;4987466;28;20105;-78
2023/06/19 07:43:41;;;;;;;2.20;0.40;;;;;;;11.88;91.20;100639.00;4986866;28;20507;-78
2023/06/19 07:46:11;;;;;;;1.33;0.20;;;;;;;11.89;89.79;100634.72;4989380;28;20046;-79
2023/06/19 07:48:39;;;;;;;3.88;0.57;;;;;;;11.92;89.32;100634.78;4991748;28;20104;-78
2023/06/19 07:51:13;;;;;;;1.27;0.57;;;;;;;11.90;89.40;100632.16;4988505;28;20042;-79
2023/06/19 07:53:44;;;;;;;0.95;0.20;;;;;;;11.87;88.38;100634.69;4987157;28;20061;-79
2023/06/19 07:56:14;;;;;;;0.70;0.30;;;;;;;11.80;88.06;100634.50;4987780;28;20325;-78
2023/06/19 07:58:43;;;;;;;1.95;0.55;;;;;;;11.73;88.56;100630.88;4985180;28;20055;-77
2023/06/19 08:01:20;;;;;;;5.40;0.63;;;;;;;11.71;88.91;100638.63;4988352;28;20104;-78
2023/06/19 08:03:49;;;;;;;0.98;0.35;;;;;;;11.70;88.28;100635.97;4985477;28;20109;-78
2023/06/19 08:06:17;;;;;;;0.40;0.30;;;;;;;11.65;88.17;100633.28;4987580;28;20057;-80
2023/06/19 08:08:51;;;;;;;1.45;0.40;;;;;;;11.64;88.17;100641.91;4991331;28;20112;-78
2023/06/19 08:11:20;;;;;;;0.52;0.45;;;;;;;11.61;88.45;100638.34;4983382;28;20094;-79
2023/06/19 08:13:48;;;;;;;0.30;0.30;;;;;;;11.59;88.09;100640.03;4988071;28;20104;-78
2023/06/19 08:16:18;;;;;;;1.45;0.30;;;;;;;11.49;89.01;100626.84;4989133;28;20118;-78
2023/06/19 08:18:48;;;;;;;1.38;0.28;;;;;;;11.49;89.07;100632.03;4988223;28;20132;-78
2023/06/19 08:21:24;;;;;;;0.38;0.38;;;;;;;11.47;89.48;100638.91;4992338;28;20089;-79
2023/06/19 08:23:54;;;;;;;0.75;0.40;;;;;;;11.45;89.35;100635.41;4990465;28;20042;-78
2023/06/19 08:26:23;;;;;;;1.30;0.50;;;;;;;11.43;89.32;100631.91;4997859;28;20068;-79
2023/06/19 08:28:55;;;;;;;3.15;0.35;;;;;;;11.39;88.58;100629.22;5001701;28;20085;-79
2023/06/19 08:31:27;;;;;;;0.30;0.22;;;;;;;11.31;89.04;100629.91;4991435;28;20094;-79
2023/06/19 08:33:55;;;;;;;0.73;0.35;;;;;;;11.26;89.38;100633.22;5012308;28;20133;-80
2023/06/19 08:36:25;;;;;;;0.95;0.50;;;;;;;11.24;89.88;100632.28;5007660;28;20106;-80
2023/06/19 08:38:59;;;;;;;0.50;0.50;;;;;;;11.21;90.20;100624.47;5006277;28;20083;-80
2023/06/19 08:41:28;;;;;;;1.05;0.40;;;;;;;11.17;89.53;100627.81;4991041;28;20042;-80
2023/06/19 08:43:57;;;;;;;0.45;0.22;;;;;;;11.11;89.33;100621.63;4984437;28;20061;-80
2023/06/19 08:46:26;;;;;;;0.88;0.30;;;;;;;11.05;89.88;100623.19;4991476;28;20555;-80
2023/06/19 08:49:07;;;;;;;0.98;0.40;;;;;;;11.02;90.02;100618.81;4988711;28;20061;-80
2023/06/19 08:51:36;;;;;;;0.30;0.25;;;;;;;10.99;90.20;100629.06;4992623;28;20062;-79
2023/06/19 08:54:07;;;;;;;1.55;0.40;;;;;;;10.93;91.56;100634.13;4991889;28;20050;-79
2023/06/19 08:56:38;;;;;;;0.70;0.43;;;;;;;10.83;92.85;100632.09;4989972;28;20046;-79
2023/06/19 08:59:11;;;;;;;0.90;0.40;;;;;;;10.77;95.04;100630.25;4986738;28;20591;-79
2023/06/19 09:01:40;;;;;;;0.52;0.30;;;;;;;10.73;96.05;100624.94;4990230;28;20051;-78
2023/06/19 09:04:13;;;;;;;0.98;0.35;;;;;;;10.71;95.44;100629.19;4985874;28;20050;-79
2023/06/19 09:06:50;;;;;;;0.98;0.80;;;;;;;10.65;94.27;100633.38;4988439;28;20137;-80
2023/06/19 09:09:22;;;;;;;1.98;0.38;;;;;;;10.59;95.04;100628.03;4984049;28;20638;-81
2023/06/19 09:12:07;;;;;;;1.13;0.30;;;;;;;10.53;94.13;100633.03;4984031;28;20479;-79
2023/06/19 09:14:36;;;;;;;2.42;0.40;;;;;;;10.49;95.02;100636.38;4986603;28;20100;-78
2023/06/19 09:17:06;;;;;;;0.68;0.40;;;;;;;10.51;94.56;100634.69;4988677;28;20046;-81
2023/06/19 09:19:36;;;;;;;0.30;0.20;;;;;;;10.54;94.46;100639.09;4989713;28;20144;-79
2023/06/19 09:22:08;;;;;;;1.08;0.30;;;;;;;10.56;94.55;100637.41;4987010;28;20560;-79
2023/06/19 09:24:39;;;;;;;0.30;0.30;;;;;;;10.58;94.75;100636.66;4987487;28;20116;-79
2023/06/19 09:27:11;;;;;;;0.43;0.20;;;;;;;10.62;94.53;100637.59;4991413;28;20050;-80
2023/06/19 09:29:41;;;;;;;0.47;0.30;;;;;;;10.57;94.00;100642.63;4988366;28;20137;-79
2023/06/19 09:32:20;;;;;;;1.98;0.57;;;;;;;10.50;93.45;100632.97;4993805;28;20715;-79
2023/06/19 09:34:50;;;;;;;0.73;0.47;;;;;;;10.51;93.73;100624.34;4987905;28;20528;-79
2023/06/19 09:37:31;;;;;;;0.65;0.30;;;;;;;10.53;93.69;100627.84;4986382;28;20069;-79
2023/06/19 09:40:09;;;;;;;4.30;0.50;;;;;;;10.55;94.43;100625.31;4986202;28;20061;-79
2023/06/19 09:42:39;;;;;;;0.68;0.40;;;;;;;10.56;94.39;100627.97;4988415;28;20058;-79
2023/06/19 09:45:14;;;;;;;0.75;0.55;;;;;;;10.52;94.42;100615.78;4982651;28;20050;-79
2023/06/19 09:47:46;;;;;;;1.80;0.38;;;;;;;10.60;94.40;100629.78;4984145;28;20062;-80
2023/06/19 09:50:16;;;;;;;1.52;0.30;;;;;;;10.63;94.30;100635.06;4987330;28;20104;-80
2023/06/19 09:52:46;;;;;;;1.38;0.50;;;;;;;10.65;94.82;100632.47;4984738;28;20049;-79
2023/06/19 09:55:17;;;;;;;1.52;0.50;;;;;;;10.61;94.76;100638.44;4988790;28;20057;-80
2023/06/19 09:57:48;;;;;;;1.20;0.47;;;;;;;10.63;94.60;100636.78;4988158;28;20086;-79
2023/06/19 10:00:21;;;;;;;2.78;0.40;;;;;;;10.61;95.50;100628.09;4989427;28;20050;-79
2023/06/19 10:02:57;;;;;;;2.65;0.43;;;;;;;10.62;95.47;100633.28;4987686;28;20680;-80
2023/06/19 10:05:33;;;;;;;3.35;0.43;;;;;;;10.58;95.63;100640.91;4988037;28;20054;-80
2023/06/19 10:08:02;;;;;;;1.48;0.43;;;;;;;10.57;96.69;100629.69;4987457;28;20089;-80
2023/06/19 10:10:49;;;;;;;0.60;0.50;;;;;;;10.58;96.40;100631.47;4990453;28;20057;-79
2023/06/19 10:13:18;;;;;;;0.70;0.38;;;;;;;10.56;97.37;100633.13;4989908;28;20530;-80
2023/06/19 10:15:48;;;;;;;0.93;0.47;;;;;;;10.58;96.61;100636.66;4990404;28;20050;-80
2023/06/19 10:18:17;;;;;;;1.10;0.75;;;;;;;10.58;97.04;100635.75;4991617;28;20043;-81
2023/06/19 10:20:47;;;;;;;1.20;0.88;;;;;;;10.57;97.61;100639.19;4988705;28;20149;-81
2023/06/19 10:23:18;;;;;;;0.90;0.70;;;;;;;10.55;97.95;100635.66;4992806;28;20599;-80
2023/06/19 10:26:00;;;;;;;2.80;0.68;;;;;;;10.48;97.71;100634.63;4991787;28;20050;-80
2023/06/19 10:28:30;;;;;;;0.93;0.73;;;;;;;10.53;98.51;100645.97;4991386;28;20121;-80
2023/06/19 10:31:00;;;;;;;0.85;0.50;;;;;;;10.57;97.57;100637.47;4991827;28;20317;-81
2023/06/19 10:33:33;;;;;;;1.00;0.43;;;;;;;10.60;97.18;100641.84;4991888;28;20054;-80
2023/06/19 10:36:01;;;;;;;;;;;;;;;10.64;96.37;100647.13;4992087;28;20129;-80
2023/06/19 10:38:30;;;;;;;0.63;0.50;;;;;;;10.66;95.59;100642.88;4991487;28;20402;-81
2023/06/19 10:41:03;;;;;;;1.67;0.60;;;;;;;10.63;96.41;100637.63;4992546;28;20061;-80
2023/06/19 10:43:32;;;;;;;2.20;0.68;;;;;;;10.57;97.22;100641.75;4989836;28;20051;-79
2023/06/19 10:46:04;;;;;;;3.35;0.65;;;;;;;10.53;96.96;100643.38;4988984;28;20050;-78
2023/06/19 10:48:33;;;;;;;1.02;0.50;;;;;;;10.46;97.62;100644.03;4991132;28;20619;-82
2023/06/19 10:51:01;;;;;;;0.98;0.55;;;;;;;10.42;97.88;100652.53;4992827;28;20475;-80
2023/06/19 10:53:40;;;;;;;0.60;0.50;;;;;;;10.40;98.41;100647.34;4992478;28;20085;-80
2023/06/19 10:56:10;;;;;;;1.33;0.52;;;;;;;10.44;99.01;100648.28;4993756;28;20093;-81
2023/06/19 10:58:39;;;;;;;3.53;0.50;;;;;;;10.47;98.71;100645.81;4990961;28;20052;-80
2023/06/19 11:01:09;;;;;;;0.73;0.68;;;;;;;10.48;97.90;100648.41;4991610;28;20050;-80
2023/06/19 11:03:40;;;;;;;1.00;0.57;;;;;;;10.52;98.33;100646.81;4995487;28;20718;-80
2023/06/19 11:06:09;;;;;;;1.85;0.35;;;;;;;10.56;97.85;100659.00;4991951;28;20550;-78
2023/06/19 11:08:37;;;;;;;1.13;0.70;;;;;;;10.57;98.31;100647.81;4995358;28;20077;-81
2023/06/19 11:11:06;;;;;;;0.57;0.47;;;;;;;10.58;97.06;100649.56;4994269;28;20122;-79
2023/06/19 11:13:43;;;;;;;0.75;0.50;;;;;;;10.62;97.16;100655.69;4998871;28;20467;-80
2023/06/19 11:16:12;;;;;;;1.35;0.77;;;;;;;10.63;97.37;100650.56;5009539;28;20049;-79
2023/06/19 11:18:41;;;;;;;2.58;0.88;;;;;;;10.67;96.85;100651.50;5011283;28;20065;-80
2023/06/19 11:21:09;;;;;;;1.05;0.63;;;;;;;10.65;96.71;100648.91;5001715;28;20061;-80
2023/06/19 11:23:50;;;;;;;0.57;0.50;;;;;;;10.62;97.48;100651.38;4993745;28;20046;-80
2023/06/19 11:26:18;;;;;;;1.38;1.27;;;;;;;10.61;96.60;100646.19;4992952;28;20701;-79
2023/06/19 11:28:52;;;;;;;1.20;0.68;;;;;;;10.61;97.33;100653.97;4990141;28;20050;-79
2023/06/19 11:31:27;;;;;;;2.25;0.70;;;;;;;10.62;97.51;100647.94;4991454;28;20050;-79
2023/06/19 11:34:01;;;;;;;0.88;0.70;;;;;;;10.62;97.11;100653.09;4987882;28;20047;-81
2023/06/19 11:36:44;;;;;;;1.95;0.65;;;;;;;10.64;97.00;100652.31;4992393;28;20046;-80
2023/06/19 11:39:15;;;;;;;2.25;0.55;;;;;;;10.65;96.29;100653.19;4990292;28;20046;-80
2023/06/19 11:41:45;;;;;;;0.60;0.45;;;;;;;10.65;96.54;100654.09;4986175;28;20073;-81
2023/06/19 11:44:16;;;;;;;1.10;0.68;;;;;;;10.65;96.11;100655.78;4984691;28;20046;-79